sensor_id;sensor_type;location;lat;lon;timestamp;pressure;altitude;pressure_sealevel;temperature;humidity
56928;BME280;60850;52.502;13.426;2024-01-30T00:01:10;102518.97;;;3.29;100.00
56928;BME280;60850;52.502;13.426;2024-01-30T00:03:47;102511.00;;;3.28;100.00
56928;BME280;60850;52.502;13.426;2024-01-30T00:06:18;102508.22;;;3.23;100.00
56928;BME280;60850;52.502;13.426;2024-01-30T00:08:46;102511.63;;;3.19;100.00
56928;BME280;60850;52.502;13.426;2024-01-30T00:11:16;102509.44;;;3.06;100.00
56928;BME280;60850;52.502;13.426;2024-01-30T00:13:43;102517.44;;;3.09;100.00
56928;BME280;60850;52.502;13.426;2024-01-30T00:16:20;102501.50;;;3.05;100.00
56928;BME280;60850;52.502;13.426;2024-01-30T00:18:46;102523.53;;;3.08;100.00
56928;BME280;60850;52.502;13.426;2024-01-30T00:21:14;102516.44;;;3.06;100.00
56928;BME280;60850;52.502;13.426;2024-01-30T00:23:40;102526.53;;;2.92;100.00
56928;BME280;60850;52.502;13.426;2024-01-30T00:26:08;102524.78;;;2.92;100.00
56928;BME280;60850;52.502;13.426;2024-01-30T00:28:36;102515.78;;;2.86;100.00
56928;BME280;60850;52.502;13.426;2024-01-30T00:31:03;102516.38;;;2.77;100.00
56928;BME280;60850;52.502;13.426;2024-01-30T00:33:31;102517.84;;;2.69;100.00
56928;BME280;60850;52.502;13.426;2024-01-30T00:35:58;102515.78;;;2.60;100.00
56928;BME280;60850;52.502;13.426;2024-01-30T00:38:25;102515.59;;;2.54;100.00
56928;BME280;60850;52.502;13.426;2024-01-30T00:40:52;102518.84;;;2.47;100.00
56928;BME280;60850;52.502;13.426;2024-01-30T00:43:19;102517.13;;;2.47;100.00
56928;BME280;60850;52.502;13.426;2024-01-30T00:45:48;102511.00;;;2.48;100.00
56928;BME280;60850;52.502;13.426;2024-01-30T00:48:16;102511.72;;;2.44;100.00
56928;BME280;60850;52.502;13.426;2024-01-30T00:50:43;102511.78;;;2.46;100.00
56928;BME280;60850;52.502;13.426;2024-01-30T00:53:10;102510.88;;;2.45;100.00
56928;BME280;60850;52.502;13.426;2024-01-30T00:55:37;102505.63;;;2.45;100.00
56928;BME280;60850;52.502;13.426;2024-01-30T00:58:04;102514.28;;;2.41;100.00
56928;BME280;60850;52.502;13.426;2024-01-30T01:00:31;102513.28;;;2.39;100.00
56928;BME280;60850;52.502;13.426;2024-01-30T01:03:00;102517.53;;;2.34;100.00
56928;BME280;60850;52.502;13.426;2024-01-30T01:05:27;102518.91;;;2.25;100.00
56928;BME280;60850;52.502;13.426;2024-01-30T01:07:54;102517.03;;;2.20;100.00
56928;BME280;60850;52.502;13.426;2024-01-30T01:10:22;102513.66;;;2.25;100.00
56928;BME280;60850;52.502;13.426;2024-01-30T01:12:49;102515.28;;;2.21;100.00
56928;BME280;60850;52.502;13.426;2024-01-30T01:15:16;102510.69;;;2.15;100.00
56928;BME280;60850;52.502;13.426;2024-01-30T01:17:43;102512.44;;;2.15;100.00
56928;BME280;60850;52.502;13.426;2024-01-30T01:20:12;102519.81;;;2.01;100.00
56928;BME280;60850;52.502;13.426;2024-01-30T01:22:39;102523.28;;;2.00;100.00
56928;BME280;60850;52.502;13.426;2024-01-30T01:25:06;102517.81;;;1.94;100.00
56928;BME280;60850;52.502;13.426;2024-01-30T01:27:33;102519.72;;;1.98;100.00
56928;BME280;60850;52.502;13.426;2024-01-30T01:30:08;102515.16;;;1.94;100.00
56928;BME280;60850;52.502;13.426;2024-01-30T01:32:35;102523.34;;;1.78;100.00
56928;BME280;60850;52.502;13.426;2024-01-30T01:35:04;102524.09;;;1.75;100.00
56928;BME280;60850;52.502;13.426;2024-01-30T01:37:33;102515.50;;;1.79;100.00
56928;BME280;60850;52.502;13.426;2024-01-30T01:40:00;102516.81;;;1.68;100.00
56928;BME280;60850;52.502;13.426;2024-01-30T01:42:27;102514.91;;;1.64;100.00
56928;BME280;60850;52.502;13.426;2024-01-30T01:44:54;102513.19;;;1.64;100.00
56928;BME280;60850;52.502;13.426;2024-01-30T01:47:21;102518.50;;;1.66;100.00
56928;BME280;60850;52.502;13.426;2024-01-30T01:49:48;102515.91;;;1.68;100.00
56928;BME280;60850;52.502;13.426;2024-01-30T01:52:15;102520.28;;;1.67;100.00
56928;BME280;60850;52.502;13.426;2024-01-30T01:54:45;102510.59;;;1.66;100.00
56928;BME280;60850;52.502;13.426;2024-01-30T01:57:12;102506.00;;;1.60;100.00
56928;BME280;60850;52.502;13.426;2024-01-30T01:59:39;102511.41;;;1.63;100.00
56928;BME280;60850;52.502;13.426;2024-01-30T02:02:08;102506.13;;;1.63;100.00
56928;BME280;60850;52.502;13.426;2024-01-30T02:04:38;102500.75;;;1.60;100.00
56928;BME280;60850;52.502;13.426;2024-01-30T02:07:05;102503.22;;;1.56;100.00
56928;BME280;60850;52.502;13.426;2024-01-30T02:09:32;102505.00;;;1.57;100.00
56928;BME280;60850;52.502;13.426;2024-01-30T02:12:00;102508.38;;;1.54;100.00
56928;BME280;60850;52.502;13.426;2024-01-30T02:14:28;102502.44;;;1.58;100.00
56928;BME280;60850;52.502;13.426;2024-01-30T02:16:54;102504.88;;;1.54;100.00
56928;BME280;60850;52.502;13.426;2024-01-30T02:19:22;102512.94;;;1.58;100.00
56928;BME280;60850;52.502;13.426;2024-01-30T02:21:50;102517.50;;;1.62;100.00
56928;BME280;60850;52.502;13.426;2024-01-30T02:24:17;102520.13;;;1.62;100.00
56928;BME280;60850;52.502;13.426;2024-01-30T02:26:44;102508.59;;;1.59;100.00
56928;BME280;60850;52.502;13.426;2024-01-30T02:29:11;102515.06;;;1.69;100.00
56928;BME280;60850;52.502;13.426;2024-01-30T02:31:38;102512.34;;;1.65;100.00
56928;BME280;60850;52.502;13.426;2024-01-30T02:34:05;102512.34;;;1.65;100.00
56928;BME280;60850;52.502;13.426;2024-01-30T02:36:32;102504.47;;;1.65;100.00
56928;BME280;60850;52.502;13.426;2024-01-30T02:39:00;102502.72;;;1.66;100.00
56928;BME280;60850;52.502;13.426;2024-01-30T02:41:28;102504.75;;;1.73;100.00
56928;BME280;60850;52.502;13.426;2024-01-30T02:43:55;102505.03;;;1.81;100.00
56928;BME280;60850;52.502;13.426;2024-01-30T02:46:22;102511.13;;;1.80;100.00
56928;BME280;60850;52.502;13.426;2024-01-30T02:48:49;102498.69;;;1.76;100.00
56928;BME280;60850;52.502;13.426;2024-01-30T02:51:16;102497.00;;;1.76;100.00
56928;BME280;60850;52.502;13.426;2024-01-30T02:53:43;102501.50;;;1.80;100.00
56928;BME280;60850;52.502;13.426;2024-01-30T02:56:12;102500.72;;;1.83;100.00
56928;BME280;60850;52.502;13.426;2024-01-30T02:58:39;102491.72;;;1.76;100.00
56928;BME280;60850;52.502;13.426;2024-01-30T03:01:06;102493.84;;;1.86;100.00
56928;BME280;60850;52.502;13.426;2024-01-30T03:03:34;102490.31;;;1.86;100.00
56928;BME280;60850;52.502;13.426;2024-01-30T03:06:01;102499.22;;;1.89;100.00
56928;BME280;60850;52.502;13.426;2024-01-30T03:08:28;102493.06;;;1.89;100.00
56928;BME280;60850;52.502;13.426;2024-01-30T03:10:55;102487.69;;;1.86;100.00
56928;BME280;60850;52.502;13.426;2024-01-30T03:13:24;102484.16;;;1.85;100.00
56928;BME280;60850;52.502;13.426;2024-01-30T03:15:51;102480.66;;;1.85;100.00
56928;BME280;60850;52.502;13.426;2024-01-30T03:18:18;102479.84;;;1.87;100.00
56928;BME280;60850;52.502;13.426;2024-01-30T03:20:45;102486.84;;;1.87;100.00
56928;BME280;60850;52.502;13.426;2024-01-30T03:23:12;102485.78;;;1.82;100.00
56928;BME280;60850;52.502;13.426;2024-01-30T03:25:39;102485.78;;;1.82;100.00
56928;BME280;60850;52.502;13.426;2024-01-30T03:28:06;102482.09;;;1.77;100.00
56928;BME280;60850;52.502;13.426;2024-01-30T03:30:35;102481.03;;;1.72;100.00
56928;BME280;60850;52.502;13.426;2024-01-30T03:33:03;102480.78;;;1.65;100.00
56928;BME280;60850;52.502;13.426;2024-01-30T03:35:30;102488.44;;;1.59;100.00
56928;BME280;60850;52.502;13.426;2024-01-30T03:37:57;102479.72;;;1.60;100.00
56928;BME280;60850;52.502;13.426;2024-01-30T03:40:24;102474.59;;;1.63;100.00
56928;BME280;60850;52.502;13.426;2024-01-30T03:42:51;102478.25;;;1.69;100.00
56928;BME280;60850;52.502;13.426;2024-01-30T03:45:18;102475.81;;;1.73;100.00
56928;BME280;60850;52.502;13.426;2024-01-30T03:47:47;102475.53;;;1.65;100.00
56928;BME280;60850;52.502;13.426;2024-01-30T03:50:14;102472.63;;;1.82;100.00
56928;BME280;60850;52.502;13.426;2024-01-30T03:52:41;102475.16;;;1.79;100.00
56928;BME280;60850;52.502;13.426;2024-01-30T03:55:08;102475.16;;;1.79;100.00
56928;BME280;60850;52.502;13.426;2024-01-30T03:57:35;102470.69;;;1.76;100.00
56928;BME280;60850;52.502;13.426;2024-01-30T04:00:03;102474.50;;;1.84;100.00
56928;BME280;60850;52.502;13.426;2024-01-30T04:02:31;102474.38;;;1.81;100.00
56928;BME280;60850;52.502;13.426;2024-01-30T04:04:59;102474.94;;;1.73;100.00
56928;BME280;60850;52.502;13.426;2024-01-30T04:07:26;102471.22;;;1.68;100.00
56928;BME280;60850;52.502;13.426;2024-01-30T04:09:54;102468.50;;;1.64;100.00
56928;BME280;60850;52.502;13.426;2024-01-30T04:12:21;102473.16;;;1.72;100.00
56928;BME280;60850;52.502;13.426;2024-01-30T04:14:48;102477.56;;;1.73;100.00
56928;BME280;60850;52.502;13.426;2024-01-30T04:17:15;102479.69;;;1.83;100.00
56928;BME280;60850;52.502;13.426;2024-01-30T04:19:42;102484.41;;;1.91;100.00
56928;BME280;60850;52.502;13.426;2024-01-30T04:22:11;102480.88;;;1.91;100.00
56928;BME280;60850;52.502;13.426;2024-01-30T04:24:37;102470.41;;;1.92;100.00
56928;BME280;60850;52.502;13.426;2024-01-30T04:27:05;102482.75;;;1.95;100.00
56928;BME280;60850;52.502;13.426;2024-01-30T04:29:32;102472.25;;;1.95;100.00
56928;BME280;60850;52.502;13.426;2024-01-30T04:31:59;102469.13;;;2.05;100.00
56928;BME280;60850;52.502;13.426;2024-01-30T04:34:26;102466.13;;;1.96;100.00
56928;BME280;60850;52.502;13.426;2024-01-30T04:36:53;102472.47;;;2.01;100.00
56928;BME280;60850;52.502;13.426;2024-01-30T04:39:22;102465.13;;;2.16;100.00
56928;BME280;60850;52.502;13.426;2024-01-30T04:41:49;102474.47;;;2.08;100.00
56928;BME280;60850;52.502;13.426;2024-01-30T04:44:16;102461.50;;;2.13;100.00
56928;BME280;60850;52.502;13.426;2024-01-30T04:46:43;102467.97;;;2.23;100.00
56928;BME280;60850;52.502;13.426;2024-01-30T04:49:10;102465.06;;;2.15;100.00
56928;BME280;60850;52.502;13.426;2024-01-30T04:51:39;102454.88;;;2.24;100.00
56928;BME280;60850;52.502;13.426;2024-01-30T04:54:06;102456.59;;;2.24;100.00
56928;BME280;60850;52.502;13.426;2024-01-30T04:56:34;102463.34;;;2.15;100.00
56928;BME280;60850;52.502;13.426;2024-01-30T04:59:02;102461.25;;;2.31;100.00
56928;BME280;60850;52.502;13.426;2024-01-30T05:01:29;102455.75;;;2.25;100.00
56928;BME280;60850;52.502;13.426;2024-01-30T05:03:56;102460.03;;;2.21;100.00
56928;BME280;60850;52.502;13.426;2024-01-30T05:06:26;102462.72;;;2.23;100.00
56928;BME280;60850;52.502;13.426;2024-01-30T05:08:53;102472.38;;;2.24;100.00
56928;BME280;60850;52.502;13.426;2024-01-30T05:11:21;102461.91;;;2.25;100.00
56928;BME280;60850;52.502;13.426;2024-01-30T05:13:49;102464.84;;;2.33;100.00
56928;BME280;60850;52.502;13.426;2024-01-30T05:16:16;102461.84;;;2.47;100.00
56928;BME280;60850;52.502;13.426;2024-01-30T05:18:43;102466.75;;;2.38;100.00
56928;BME280;60850;52.502;13.426;2024-01-30T05:21:10;102463.88;;;2.31;100.00
56928;BME280;60850;52.502;13.426;2024-01-30T05:23:37;102468.09;;;2.26;100.00
56928;BME280;60850;52.502;13.426;2024-01-30T05:26:04;102466.41;;;2.28;100.00
56928;BME280;60850;52.502;13.426;2024-01-30T05:28:31;102461.38;;;2.34;100.00
56928;BME280;60850;52.502;13.426;2024-01-30T05:31:00;102455.88;;;2.28;100.00
56928;BME280;60850;52.502;13.426;2024-01-30T05:33:27;102459.66;;;2.36;100.00
56928;BME280;60850;52.502;13.426;2024-01-30T05:35:54;102453.81;;;2.44;100.00
56928;BME280;60850;52.502;13.426;2024-01-30T05:38:21;102454.13;;;2.54;100.00
56928;BME280;60850;52.502;13.426;2024-01-30T05:40:49;102452.94;;;2.44;100.00
56928;BME280;60850;52.502;13.426;2024-01-30T05:43:15;102454.56;;;2.40;100.00
56928;BME280;60850;52.502;13.426;2024-01-30T05:45:42;102454.41;;;2.36;100.00
56928;BME280;60850;52.502;13.426;2024-01-30T05:48:11;102449.81;;;2.30;100.00
56928;BME280;60850;52.502;13.426;2024-01-30T05:50:38;102457.94;;;2.36;100.00
56928;BME280;60850;52.502;13.426;2024-01-30T05:53:05;102447.06;;;2.26;100.00
56928;BME280;60850;52.502;13.426;2024-01-30T05:55:33;102448.28;;;2.37;100.00
56928;BME280;60850;52.502;13.426;2024-01-30T05:57:59;102454.03;;;2.25;100.00
56928;BME280;60850;52.502;13.426;2024-01-30T06:00:27;102454.34;;;2.34;100.00
56928;BME280;60850;52.502;13.426;2024-01-30T06:02:53;102449.81;;;2.30;100.00
56928;BME280;60850;52.502;13.426;2024-01-30T06:05:22;102453.13;;;2.25;100.00
56928;BME280;60850;52.502;13.426;2024-01-30T06:07:49;102454.72;;;2.19;100.00
56928;BME280;60850;52.502;13.426;2024-01-30T06:10:16;102453.88;;;2.20;100.00
56928;BME280;60850;52.502;13.426;2024-01-30T06:12:43;102451.28;;;2.22;100.00
56928;BME280;60850;52.502;13.426;2024-01-30T06:15:10;102454.94;;;2.26;100.00
56928;BME280;60850;52.502;13.426;2024-01-30T06:17:38;102455.34;;;2.38;100.00
56928;BME280;60850;52.502;13.426;2024-01-30T06:20:06;102449.06;;;2.33;100.00
56928;BME280;60850;52.502;13.426;2024-01-30T06:22:34;102443.44;;;2.24;100.00
56928;BME280;60850;52.502;13.426;2024-01-30T06:25:02;102452.09;;;2.19;100.00
56928;BME280;60850;52.502;13.426;2024-01-30T06:27:29;102454.47;;;2.12;100.00
56928;BME280;60850;52.502;13.426;2024-01-30T06:29:56;102447.09;;;2.03;100.00
56928;BME280;60850;52.502;13.426;2024-01-30T06:32:23;102457.75;;;2.06;100.00
56928;BME280;60850;52.502;13.426;2024-01-30T06:34:50;102453.22;;;2.02;100.00
56928;BME280;60850;52.502;13.426;2024-01-30T06:37:17;102451.34;;;1.98;100.00
56928;BME280;60850;52.502;13.426;2024-01-30T06:39:46;102445.94;;;2.19;100.00
56928;BME280;60850;52.502;13.426;2024-01-30T06:42:13;102447.72;;;2.20;100.00
56928;BME280;60850;52.502;13.426;2024-01-30T06:44:40;102445.59;;;2.10;100.00
56928;BME280;60850;52.502;13.426;2024-01-30T06:47:07;102450.81;;;2.08;100.00
56928;BME280;60850;52.502;13.426;2024-01-30T06:49:34;102447.28;;;2.08;100.00
56928;BME280;60850;52.502;13.426;2024-01-30T06:52:04;102446.72;;;2.16;100.00
56928;BME280;60850;52.502;13.426;2024-01-30T06:54:32;102442.47;;;2.20;100.00
56928;BME280;60850;52.502;13.426;2024-01-30T06:57:00;102444.28;;;2.23;100.00
56928;BME280;60850;52.502;13.426;2024-01-30T06:59:27;102446.72;;;2.16;100.00
56928;BME280;60850;52.502;13.426;2024-01-30T07:01:54;102449.25;;;2.13;100.00
56928;BME280;60850;52.502;13.426;2024-01-30T07:04:21;102442.97;;;2.10;100.00
56928;BME280;60850;52.502;13.426;2024-01-30T07:06:48;102446.38;;;2.07;100.00
56928;BME280;60850;52.502;13.426;2024-01-30T07:09:15;102447.28;;;2.08;100.00
56928;BME280;60850;52.502;13.426;2024-01-30T07:11:42;102451.66;;;2.07;100.00
56928;BME280;60850;52.502;13.426;2024-01-30T07:14:11;102448.50;;;2.17;100.00
56928;BME280;60850;52.502;13.426;2024-01-30T07:16:38;102448.41;;;2.14;100.00
56928;BME280;60850;52.502;13.426;2024-01-30T07:19:05;102453.03;;;2.22;100.00
56928;BME280;60850;52.502;13.426;2024-01-30T07:21:35;102446.91;;;2.23;100.00
56928;BME280;60850;52.502;13.426;2024-01-30T07:24:02;102443.34;;;2.20;100.00
56928;BME280;60850;52.502;13.426;2024-01-30T07:26:29;102441.56;;;2.19;100.00
56928;BME280;60850;52.502;13.426;2024-01-30T07:28:56;102445.22;;;2.25;100.00
56928;BME280;60850;52.502;13.426;2024-01-30T07:31:24;102439.41;;;2.33;100.00
56928;BME280;60850;52.502;13.426;2024-01-30T07:33:51;102437.75;;;2.37;100.00
56928;BME280;60850;52.502;13.426;2024-01-30T07:36:18;102441.47;;;2.42;100.00
56928;BME280;60850;52.502;13.426;2024-01-30T07:38:46;102447.25;;;2.57;100.00
56928;BME280;60850;52.502;13.426;2024-01-30T07:41:12;102437.56;;;2.56;100.00
56928;BME280;60850;52.502;13.426;2024-01-30T07:43:40;102429.53;;;2.53;100.00
56928;BME280;60850;52.502;13.426;2024-01-30T07:46:06;102431.59;;;2.62;100.00
56928;BME280;60850;52.502;13.426;2024-01-30T07:48:35;102437.63;;;2.59;100.00
56928;BME280;60850;52.502;13.426;2024-01-30T07:51:02;102430.72;;;2.61;100.00
56928;BME280;60850;52.502;13.426;2024-01-30T07:53:29;102432.59;;;2.65;100.00
56928;BME280;60850;52.502;13.426;2024-01-30T07:55:56;102438.06;;;2.71;100.00
56928;BME280;60850;52.502;13.426;2024-01-30T07:58:23;102433.88;;;2.78;100.00
56928;BME280;60850;52.502;13.426;2024-01-30T08:00:53;102433.41;;;2.90;100.00
56928;BME280;60850;52.502;13.426;2024-01-30T08:03:22;102439.41;;;2.86;100.00
56928;BME280;60850;52.502;13.426;2024-01-30T08:05:51;102433.91;;;3.07;100.00
56928;BME280;60850;52.502;13.426;2024-01-30T08:08:18;102435.84;;;3.12;100.00
56928;BME280;60850;52.502;13.426;2024-01-30T08:10:45;102427.72;;;3.05;100.00
56928;BME280;60850;52.502;13.426;2024-01-30T08:13:12;102428.00;;;3.14;100.00
56928;BME280;60850;52.502;13.426;2024-01-30T08:15:39;102425.59;;;3.21;100.00
56928;BME280;60850;52.502;13.426;2024-01-30T08:18:06;102431.75;;;3.22;100.00
56928;BME280;60850;52.502;13.426;2024-01-30T08:20:33;102437.63;;;3.42;100.00
56928;BME280;60850;52.502;13.426;2024-01-30T08:23:02;102427.25;;;3.46;100.00
56928;BME280;60850;52.502;13.426;2024-01-30T08:25:29;102428.31;;;3.53;100.00
56928;BME280;60850;52.502;13.426;2024-01-30T08:27:56;102428.13;;;3.77;100.00
56928;BME280;60850;52.502;13.426;2024-01-30T08:30:23;102426.56;;;3.85;100.00
56928;BME280;60850;52.502;13.426;2024-01-30T08:32:50;102420.31;;;4.13;100.00
56928;BME280;60850;52.502;13.426;2024-01-30T08:35:17;102415.19;;;4.19;100.00
56928;BME280;60850;52.502;13.426;2024-01-30T08:37:44;102421.72;;;4.33;100.00
56928;BME280;60850;52.502;13.426;2024-01-30T08:40:13;102421.34;;;4.53;100.00
56928;BME280;60850;52.502;13.426;2024-01-30T08:42:40;102419.09;;;4.68;100.00
56928;BME280;60850;52.502;13.426;2024-01-30T08:45:08;102409.63;;;4.78;100.00
56928;BME280;60850;52.502;13.426;2024-01-30T08:47:35;102409.53;;;5.11;100.00
56928;BME280;60850;52.502;13.426;2024-01-30T08:50:02;102403.13;;;5.40;100.00
56928;BME280;60850;52.502;13.426;2024-01-30T08:52:30;102411.53;;;5.63;100.00
56928;BME280;60850;52.502;13.426;2024-01-30T08:54:56;102408.44;;;5.84;100.00
56928;BME280;60850;52.502;13.426;2024-01-30T08:57:25;102405.22;;;5.99;100.00
56928;BME280;60850;52.502;13.426;2024-01-30T08:59:54;102399.88;;;6.44;100.00
56928;BME280;60850;52.502;13.426;2024-01-30T09:02:21;102398.84;;;6.35;100.00
56928;BME280;60850;52.502;13.426;2024-01-30T09:04:48;102401.28;;;6.24;100.00
56928;BME280;60850;52.502;13.426;2024-01-30T09:07:15;102399.50;;;6.23;100.00
56928;BME280;60850;52.502;13.426;2024-01-30T09:09:42;102404.72;;;6.20;100.00
56928;BME280;60850;52.502;13.426;2024-01-30T09:12:09;102404.72;;;6.20;100.00
56928;BME280;60850;52.502;13.426;2024-01-30T09:14:39;102396.72;;;6.17;100.00
56928;BME280;60850;52.502;13.426;2024-01-30T09:17:07;102395.97;;;6.24;100.00
56928;BME280;60850;52.502;13.426;2024-01-30T09:19:34;102398.44;;;6.13;100.00
56928;BME280;60850;52.502;13.426;2024-01-30T09:22:01;102405.16;;;5.94;100.00
56928;BME280;60850;52.502;13.426;2024-01-30T09:24:28;102410.47;;;5.96;100.00
56928;BME280;60850;52.502;13.426;2024-01-30T09:26:55;102403.09;;;5.83;100.00
56928;BME280;60850;52.502;13.426;2024-01-30T09:29:22;102410.06;;;5.77;100.00
56928;BME280;60850;52.502;13.426;2024-01-30T09:31:51;102411.72;;;5.71;100.00
56928;BME280;60850;52.502;13.426;2024-01-30T09:34:18;102408.09;;;5.67;100.00
56928;BME280;60850;52.502;13.426;2024-01-30T09:36:45;102413.06;;;5.93;100.00
56928;BME280;60850;52.502;13.426;2024-01-30T09:39:12;102405.00;;;5.88;100.00
56928;BME280;60850;52.502;13.426;2024-01-30T09:41:45;102405.22;;;5.99;100.00
56928;BME280;60850;52.502;13.426;2024-01-30T09:44:16;102402.34;;;5.88;100.00
56928;BME280;60850;52.502;13.426;2024-01-30T09:46:45;102405.06;;;5.91;100.00
56928;BME280;60850;52.502;13.426;2024-01-30T09:49:15;102399.22;;;6.08;100.00
56928;BME280;60850;52.502;13.426;2024-01-30T09:51:44;102405.22;;;5.99;100.00
56928;BME280;60850;52.502;13.426;2024-01-30T09:54:14;102400.94;;;6.05;100.00
56928;BME280;60850;52.502;13.426;2024-01-30T09:56:41;102399.09;;;6.00;100.00
56928;BME280;60850;52.502;13.426;2024-01-30T09:59:09;102401.13;;;6.16;100.00
56928;BME280;60850;52.502;13.426;2024-01-30T10:01:36;102393.31;;;6.22;100.00
56928;BME280;60850;52.502;13.426;2024-01-30T10:04:04;102390.69;;;6.24;100.00
56928;BME280;60850;52.502;13.426;2024-01-30T10:06:33;102386.41;;;6.32;100.00
56928;BME280;60850;52.502;13.426;2024-01-30T10:09:01;102389.28;;;6.46;100.00
56928;BME280;60850;52.502;13.426;2024-01-30T10:11:29;102386.16;;;6.70;99.56
56928;BME280;60850;52.502;13.426;2024-01-30T10:13:55;102384.31;;;6.66;99.82
56928;BME280;60850;52.502;13.426;2024-01-30T10:16:22;102394.19;;;6.76;98.22
56928;BME280;60850;52.502;13.426;2024-01-30T10:18:50;102380.03;;;6.74;96.83
56928;BME280;60850;52.502;13.426;2024-01-30T10:21:18;102375.84;;;6.89;97.64
56928;BME280;60850;52.502;13.426;2024-01-30T10:23:46;102381.91;;;6.79;96.36
56928;BME280;60850;52.502;13.426;2024-01-30T10:26:13;102379.31;;;6.84;95.78
56928;BME280;60850;52.502;13.426;2024-01-30T10:28:43;102366.97;;;6.84;94.46
56928;BME280;60850;52.502;13.426;2024-01-30T10:31:10;102374.06;;;6.88;94.42
56928;BME280;60850;52.502;13.426;2024-01-30T10:33:37;102365.44;;;7.03;93.46
56928;BME280;60850;52.502;13.426;2024-01-30T10:36:05;102363.66;;;7.02;92.40
56928;BME280;60850;52.502;13.426;2024-01-30T10:38:32;102368.09;;;7.03;92.94
56928;BME280;60850;52.502;13.426;2024-01-30T10:41:01;102373.31;;;6.97;92.39
56928;BME280;60850;52.502;13.426;2024-01-30T10:43:31;102361.72;;;6.91;92.34
56928;BME280;60850;52.502;13.426;2024-01-30T10:46:06;102363.69;;;7.04;92.17
56928;BME280;60850;52.502;13.426;2024-01-30T10:48:42;102363.72;;;7.05;92.25
56928;BME280;60850;52.502;13.426;2024-01-30T10:51:11;102374.94;;;6.87;93.46
56928;BME280;60850;52.502;13.426;2024-01-30T10:53:39;102367.19;;;7.00;92.56
56928;BME280;60850;52.502;13.426;2024-01-30T10:56:08;102374.28;;;7.02;92.18
56928;BME280;60850;52.502;13.426;2024-01-30T10:58:36;102370.78;;;7.05;92.59
56928;BME280;60850;52.502;13.426;2024-01-30T11:01:05;102370.81;;;7.06;92.42
56928;BME280;60850;52.502;13.426;2024-01-30T11:03:33;102368.19;;;7.09;92.38
56928;BME280;60850;52.502;13.426;2024-01-30T11:06:02;102366.44;;;7.11;91.55
56928;BME280;60850;52.502;13.426;2024-01-30T11:08:32;102374.44;;;7.13;91.62
56928;BME280;60850;52.502;13.426;2024-01-30T11:10:59;102369.22;;;7.21;91.47
56928;BME280;60850;52.502;13.426;2024-01-30T11:13:30;102367.38;;;7.13;91.87
56928;BME280;60850;52.502;13.426;2024-01-30T11:16:00;102370.03;;;7.13;91.69
56928;BME280;60850;52.502;13.426;2024-01-30T11:18:29;102361.28;;;7.21;91.29
56928;BME280;60850;52.502;13.426;2024-01-30T11:20:57;102363.75;;;7.08;92.12
56928;BME280;60850;52.502;13.426;2024-01-30T11:23:26;102355.78;;;7.07;92.02
56928;BME280;60850;52.502;13.426;2024-01-30T11:25:54;102361.91;;;7.04;92.16
56928;BME280;60850;52.502;13.426;2024-01-30T11:28:22;102356.66;;;7.06;91.95
56928;BME280;60850;52.502;13.426;2024-01-30T11:30:50;102359.41;;;7.12;92.13
56928;BME280;60850;52.502;13.426;2024-01-30T11:33:27;102354.00;;;7.06;92.67
56928;BME280;60850;52.502;13.426;2024-01-30T11:35:57;102354.09;;;7.12;92.15
56928;BME280;60850;52.502;13.426;2024-01-30T11:38:25;102354.97;;;7.12;92.40
56928;BME280;60850;52.502;13.426;2024-01-30T11:40:53;102354.22;;;7.23;91.86
56928;BME280;60850;52.502;13.426;2024-01-30T11:43:21;102353.31;;;7.19;92.79
56928;BME280;60850;52.502;13.426;2024-01-30T11:45:49;102349.88;;;7.29;93.48
56928;BME280;60850;52.502;13.426;2024-01-30T11:48:17;102349.81;;;7.25;92.97
56928;BME280;60850;52.502;13.426;2024-01-30T11:50:44;102352.53;;;7.26;92.45
56928;BME280;60850;52.502;13.426;2024-01-30T11:53:11;102354.25;;;7.26;92.35
56928;BME280;60850;52.502;13.426;2024-01-30T11:55:39;102347.41;;;7.43;92.17
56928;BME280;60850;52.502;13.426;2024-01-30T11:58:05;102343.97;;;7.52;92.25
56928;BME280;60850;52.502;13.426;2024-01-30T12:00:33;102343.06;;;7.51;92.04
56928;BME280;60850;52.502;13.426;2024-01-30T12:03:01;102333.59;;;7.71;91.06
56928;BME280;60850;52.502;13.426;2024-01-30T12:05:29;102328.41;;;7.85;90.83
56928;BME280;60850;52.502;13.426;2024-01-30T12:07:56;102326.63;;;7.83;90.75
56928;BME280;60850;52.502;13.426;2024-01-30T12:10:24;102332.03;;;7.92;90.22
56928;BME280;60850;52.502;13.426;2024-01-30T12:12:53;102336.38;;;7.87;90.98
56928;BME280;60850;52.502;13.426;2024-01-30T12:15:22;102329.38;;;7.92;90.50
56928;BME280;60850;52.502;13.426;2024-01-30T12:17:49;102323.19;;;7.94;90.43
56928;BME280;60850;52.502;13.426;2024-01-30T12:20:19;102324.13;;;7.98;89.82
56928;BME280;60850;52.502;13.426;2024-01-30T12:22:47;102326.81;;;8.03;89.95
56928;BME280;60850;52.502;13.426;2024-01-30T12:25:16;102321.59;;;8.12;89.70
56928;BME280;60850;52.502;13.426;2024-01-30T12:27:45;102314.50;;;8.11;90.60
56928;BME280;60850;52.502;13.426;2024-01-30T12:30:15;102316.22;;;8.04;90.98
56928;BME280;60850;52.502;13.426;2024-01-30T12:32:44;102309.97;;;7.99;90.50
56928;BME280;60850;52.502;13.426;2024-01-30T12:35:12;102295.03;;;8.15;89.67
56928;BME280;60850;52.502;13.426;2024-01-30T12:37:42;102306.50;;;8.09;90.12
56928;BME280;60850;52.502;13.426;2024-01-30T12:40:10;102297.56;;;7.98;91.07
56928;BME280;60850;52.502;13.426;2024-01-30T12:42:38;102301.13;;;8.00;91.64
56928;BME280;60850;52.502;13.426;2024-01-30T12:45:06;102291.38;;;7.97;91.79